sensor_id;sensor_type;location;lat;lon;timestamp;temperature;humidity
1277;DHT22;631;51.024;13.826;2023-07-02T00:02:08;19.10;1.00
1277;DHT22;631;51.024;13.826;2023-07-02T00:04:33;19.10;1.00
1277;DHT22;631;51.024;13.826;2023-07-02T00:06:59;19.10;1.00
1277;DHT22;631;51.024;13.826;2023-07-02T00:09:25;19.20;1.00
1277;DHT22;631;51.024;13.826;2023-07-02T00:11:50;19.20;99.90
1277;DHT22;631;51.024;13.826;2023-07-02T00:14:16;19.30;1.00
1277;DHT22;631;51.024;13.826;2023-07-02T00:16:44;19.40;1.00
1277;DHT22;631;51.024;13.826;2023-07-02T00:19:11;19.40;99.90
1277;DHT22;631;51.024;13.826;2023-07-02T00:21:37;19.40;1.00
1277;DHT22;631;51.024;13.826;2023-07-02T00:24:04;19.40;1.00
1277;DHT22;631;51.024;13.826;2023-07-02T00:26:30;19.40;1.00
1277;DHT22;631;51.024;13.826;2023-07-02T00:28:56;19.40;1.00
1277;DHT22;631;51.024;13.826;2023-07-02T00:31:23;19.40;1.00
1277;DHT22;631;51.024;13.826;2023-07-02T00:33:49;19.40;99.90
1277;DHT22;631;51.024;13.826;2023-07-02T00:36:15;19.50;99.90
1277;DHT22;631;51.024;13.826;2023-07-02T00:38:42;19.50;1.00
1277;DHT22;631;51.024;13.826;2023-07-02T00:41:08;19.60;1.00
1277;DHT22;631;51.024;13.826;2023-07-02T00:43:34;19.60;99.90
1277;DHT22;631;51.024;13.826;2023-07-02T00:46:00;19.60;99.90
1277;DHT22;631;51.024;13.826;2023-07-02T00:48:26;19.60;99.90
1277;DHT22;631;51.024;13.826;2023-07-02T00:50:52;19.60;99.90
1277;DHT22;631;51.024;13.826;2023-07-02T00:53:18;19.60;99.90
1277;DHT22;631;51.024;13.826;2023-07-02T00:55:43;19.60;9.60
1277;DHT22;631;51.024;13.826;2023-07-02T00:58:09;19.60;1.00
1277;DHT22;631;51.024;13.826;2023-07-02T01:00:35;19.60;10.40
1277;DHT22;631;51.024;13.826;2023-07-02T01:03:01;19.60;16.70
1277;DHT22;631;51.024;13.826;2023-07-02T01:05:28;19.50;54.70
1277;DHT22;631;51.024;13.826;2023-07-02T01:08:01;19.50;1.00
1277;DHT22;631;51.024;13.826;2023-07-02T01:10:27;19.50;1.00
1277;DHT22;631;51.024;13.826;2023-07-02T01:12:54;19.50;1.00
1277;DHT22;631;51.024;13.826;2023-07-02T01:15:20;19.50;48.70
1277;DHT22;631;51.024;13.826;2023-07-02T01:17:47;19.50;1.00
1277;DHT22;631;51.024;13.826;2023-07-02T01:20:14;19.60;1.00
1277;DHT22;631;51.024;13.826;2023-07-02T01:22:40;19.50;1.00
1277;DHT22;631;51.024;13.826;2023-07-02T01:25:06;19.50;1.00
1277;DHT22;631;51.024;13.826;2023-07-02T01:27:34;19.60;1.00
1277;DHT22;631;51.024;13.826;2023-07-02T01:30:01;19.50;1.00
1277;DHT22;631;51.024;13.826;2023-07-02T01:32:27;19.60;1.00
1277;DHT22;631;51.024;13.826;2023-07-02T01:34:52;19.60;1.00
1277;DHT22;631;51.024;13.826;2023-07-02T01:37:19;19.70;99.90
1277;DHT22;631;51.024;13.826;2023-07-02T01:39:45;19.60;99.90
1277;DHT22;631;51.024;13.826;2023-07-02T01:42:15;19.60;99.90
1277;DHT22;631;51.024;13.826;2023-07-02T01:44:48;19.60;99.90
1277;DHT22;631;51.024;13.826;2023-07-02T01:47:15;19.50;99.90
1277;DHT22;631;51.024;13.826;2023-07-02T01:49:41;19.60;99.90
1277;DHT22;631;51.024;13.826;2023-07-02T01:52:06;19.60;1.00
1277;DHT22;631;51.024;13.826;2023-07-02T01:54:34;19.50;1.00
1277;DHT22;631;51.024;13.826;2023-07-02T01:57:00;19.50;1.00
1277;DHT22;631;51.024;13.826;2023-07-02T01:59:26;19.40;1.00
1277;DHT22;631;51.024;13.826;2023-07-02T02:01:52;19.50;1.00
1277;DHT22;631;51.024;13.826;2023-07-02T02:04:17;19.50;1.00
1277;DHT22;631;51.024;13.826;2023-07-02T02:07:03;19.60;1.00
1277;DHT22;631;51.024;13.826;2023-07-02T02:09:40;19.50;1.00
1277;DHT22;631;51.024;13.826;2023-07-02T02:12:06;19.40;1.00
1277;DHT22;631;51.024;13.826;2023-07-02T02:14:32;19.30;1.00
1277;DHT22;631;51.024;13.826;2023-07-02T02:16:57;19.00;99.90
1277;DHT22;631;51.024;13.826;2023-07-02T02:19:23;18.80;1.00
1277;DHT22;631;51.024;13.826;2023-07-02T02:21:48;18.60;1.00
1277;DHT22;631;51.024;13.826;2023-07-02T02:24:14;18.40;1.00
1277;DHT22;631;51.024;13.826;2023-07-02T02:26:40;18.40;1.00
1277;DHT22;631;51.024;13.826;2023-07-02T02:29:05;18.30;1.00
1277;DHT22;631;51.024;13.826;2023-07-02T02:31:31;18.30;1.00
1277;DHT22;631;51.024;13.826;2023-07-02T02:33:57;18.30;1.00
1277;DHT22;631;51.024;13.826;2023-07-02T02:36:22;18.30;1.00
1277;DHT22;631;51.024;13.826;2023-07-02T02:38:48;18.20;1.00
1277;DHT22;631;51.024;13.826;2023-07-02T02:41:13;18.20;5.50
1277;DHT22;631;51.024;13.826;2023-07-02T02:43:42;18.10;15.80
1277;DHT22;631;51.024;13.826;2023-07-02T02:46:09;18.10;33.50
1277;DHT22;631;51.024;13.826;2023-07-02T02:48:35;18.10;42.50
1277;DHT22;631;51.024;13.826;2023-07-02T02:51:00;18.20;25.50
1277;DHT22;631;51.024;13.826;2023-07-02T02:53:26;18.10;30.00
1277;DHT22;631;51.024;13.826;2023-07-02T02:55:51;18.20;31.80
1277;DHT22;631;51.024;13.826;2023-07-02T02:58:17;18.20;24.20
1277;DHT22;631;51.024;13.826;2023-07-02T03:00:42;18.20;19.10
1277;DHT22;631;51.024;13.826;2023-07-02T03:03:13;18.30;11.30
1277;DHT22;631;51.024;13.826;2023-07-02T03:05:40;18.30;1.00
1277;DHT22;631;51.024;13.826;2023-07-02T03:08:05;18.30;1.00
1277;DHT22;631;51.024;13.826;2023-07-02T03:10:31;18.30;1.00
1277;DHT22;631;51.024;13.826;2023-07-02T03:12:57;18.30;1.00
1277;DHT22;631;51.024;13.826;2023-07-02T03:15:22;18.40;1.00
1277;DHT22;631;51.024;13.826;2023-07-02T03:17:48;18.40;1.00
1277;DHT22;631;51.024;13.826;2023-07-02T03:20:13;18.40;1.00
1277;DHT22;631;51.024;13.826;2023-07-02T03:22:39;18.40;1.00
1277;DHT22;631;51.024;13.826;2023-07-02T03:25:05;18.40;1.00
1277;DHT22;631;51.024;13.826;2023-07-02T03:27:30;18.40;1.00
1277;DHT22;631;51.024;13.826;2023-07-02T03:29:56;18.40;1.00
1277;DHT22;631;51.024;13.826;2023-07-02T03:32:22;18.40;1.00
1277;DHT22;631;51.024;13.826;2023-07-02T03:34:47;18.40;1.00
1277;DHT22;631;51.024;13.826;2023-07-02T03:37:13;18.40;1.00
1277;DHT22;631;51.024;13.826;2023-07-02T03:39:38;18.50;1.00
1277;DHT22;631;51.024;13.826;2023-07-02T03:42:05;18.50;1.00
1277;DHT22;631;51.024;13.826;2023-07-02T03:44:31;18.50;1.00
1277;DHT22;631;51.024;13.826;2023-07-02T03:46:56;18.60;1.00
1277;DHT22;631;51.024;13.826;2023-07-02T03:49:22;18.60;1.00
1277;DHT22;631;51.024;13.826;2023-07-02T03:51:47;18.60;1.00
1277;DHT22;631;51.024;13.826;2023-07-02T03:54:13;18.60;1.00
1277;DHT22;631;51.024;13.826;2023-07-02T03:56:38;18.60;1.00
1277;DHT22;631;51.024;13.826;2023-07-02T03:59:04;18.70;1.00
1277;DHT22;631;51.024;13.826;2023-07-02T04:01:30;18.60;1.00
1277;DHT22;631;51.024;13.826;2023-07-02T04:03:56;18.60;1.00
1277;DHT22;631;51.024;13.826;2023-07-02T04:06:22;18.30;1.00
1277;DHT22;631;51.024;13.826;2023-07-02T04:08:48;18.20;5.50
1277;DHT22;631;51.024;13.826;2023-07-02T04:11:14;18.00;88.00
1277;DHT22;631;51.024;13.826;2023-07-02T04:13:39;17.90;96.30
1277;DHT22;631;51.024;13.826;2023-07-02T04:16:05;17.80;99.90
1277;DHT22;631;51.024;13.826;2023-07-02T04:18:31;17.70;99.90
1277;DHT22;631;51.024;13.826;2023-07-02T04:20:57;17.60;99.90
1277;DHT22;631;51.024;13.826;2023-07-02T04:23:24;17.60;99.90
1277;DHT22;631;51.024;13.826;2023-07-02T04:25:50;17.60;99.90
1277;DHT22;631;51.024;13.826;2023-07-02T04:28:16;17.60;99.90
1277;DHT22;631;51.024;13.826;2023-07-02T04:30:41;17.50;99.90
1277;DHT22;631;51.024;13.826;2023-07-02T04:33:07;17.50;99.90
1277;DHT22;631;51.024;13.826;2023-07-02T04:35:33;17.50;99.90
1277;DHT22;631;51.024;13.826;2023-07-02T04:38:00;17.60;99.90
1277;DHT22;631;51.024;13.826;2023-07-02T04:40:26;17.60;99.90
1277;DHT22;631;51.024;13.826;2023-07-02T04:42:51;17.60;99.90
1277;DHT22;631;51.024;13.826;2023-07-02T04:45:24;17.60;99.90
1277;DHT22;631;51.024;13.826;2023-07-02T04:47:50;17.60;99.90
1277;DHT22;631;51.024;13.826;2023-07-02T04:50:17;17.40;99.90
1277;DHT22;631;51.024;13.826;2023-07-02T04:52:42;17.40;99.90
1277;DHT22;631;51.024;13.826;2023-07-02T04:55:08;17.30;99.90
1277;DHT22;631;51.024;13.826;2023-07-02T04:57:34;17.20;99.90
1277;DHT22;631;51.024;13.826;2023-07-02T05:00:00;17.20;99.90
1277;DHT22;631;51.024;13.826;2023-07-02T05:02:25;17.20;99.90
1277;DHT22;631;51.024;13.826;2023-07-02T05:04:51;17.20;99.90
1277;DHT22;631;51.024;13.826;2023-07-02T05:07:16;17.20;99.90
1277;DHT22;631;51.024;13.826;2023-07-02T05:09:42;17.20;99.90
1277;DHT22;631;51.024;13.826;2023-07-02T05:12:09;17.20;99.90
1277;DHT22;631;51.024;13.826;2023-07-02T05:14:35;17.20;99.90
1277;DHT22;631;51.024;13.826;2023-07-02T05:17:00;17.20;99.90
1277;DHT22;631;51.024;13.826;2023-07-02T05:19:26;17.10;99.90
1277;DHT22;631;51.024;13.826;2023-07-02T05:21:52;17.20;99.90
1277;DHT22;631;51.024;13.826;2023-07-02T05:24:17;17.20;99.90
1277;DHT22;631;51.024;13.826;2023-07-02T05:26:43;17.20;99.90
1277;DHT22;631;51.024;13.826;2023-07-02T05:29:10;17.20;99.90
1277;DHT22;631;51.024;13.826;2023-07-02T05:31:36;17.20;99.90
1277;DHT22;631;51.024;13.826;2023-07-02T05:34:01;17.20;99.90
1277;DHT22;631;51.024;13.826;2023-07-02T05:36:27;17.30;99.90
1277;DHT22;631;51.024;13.826;2023-07-02T05:38:53;17.30;99.90
1277;DHT22;631;51.024;13.826;2023-07-02T05:41:19;17.30;99.90
1277;DHT22;631;51.024;13.826;2023-07-02T05:43:45;17.40;99.90
1277;DHT22;631;51.024;13.826;2023-07-02T05:46:10;17.50;99.90
1277;DHT22;631;51.024;13.826;2023-07-02T05:48:37;17.50;99.90
1277;DHT22;631;51.024;13.826;2023-07-02T05:51:03;17.60;99.90
1277;DHT22;631;51.024;13.826;2023-07-02T05:53:29;17.70;99.90
1277;DHT22;631;51.024;13.826;2023-07-02T05:55:54;17.70;99.90
1277;DHT22;631;51.024;13.826;2023-07-02T05:58:20;17.90;99.90
1277;DHT22;631;51.024;13.826;2023-07-02T06:00:45;18.00;99.90
1277;DHT22;631;51.024;13.826;2023-07-02T06:03:15;18.20;99.90
1277;DHT22;631;51.024;13.826;2023-07-02T06:05:48;18.30;99.90
1277;DHT22;631;51.024;13.826;2023-07-02T06:08:15;18.40;99.90
1277;DHT22;631;51.024;13.826;2023-07-02T06:10:41;18.50;99.90
1277;DHT22;631;51.024;13.826;2023-07-02T06:13:06;18.60;99.90
1277;DHT22;631;51.024;13.826;2023-07-02T06:15:32;18.60;93.20
1277;DHT22;631;51.024;13.826;2023-07-02T06:17:58;18.70;74.60
1277;DHT22;631;51.024;13.826;2023-07-02T06:20:23;18.80;52.10
1277;DHT22;631;51.024;13.826;2023-07-02T06:22:49;18.80;49.40
1277;DHT22;631;51.024;13.826;2023-07-02T06:25:14;18.80;29.10
1277;DHT22;631;51.024;13.826;2023-07-02T06:27:40;18.90;1.00
1277;DHT22;631;51.024;13.826;2023-07-02T06:30:06;18.70;1.00
1277;DHT22;631;51.024;13.826;2023-07-02T06:32:32;18.60;14.80
1277;DHT22;631;51.024;13.826;2023-07-02T06:34:58;18.60;13.80
1277;DHT22;631;51.024;13.826;2023-07-02T06:37:23;18.70;5.70
1277;DHT22;631;51.024;13.826;2023-07-02T06:39:49;18.60;4.50
1277;DHT22;631;51.024;13.826;2023-07-02T06:42:14;18.60;5.20
1277;DHT22;631;51.024;13.826;2023-07-02T06:44:41;18.60;16.00
1277;DHT22;631;51.024;13.826;2023-07-02T06:47:07;18.60;19.20
1277;DHT22;631;51.024;13.826;2023-07-02T06:49:32;18.70;1.00
1277;DHT22;631;51.024;13.826;2023-07-02T06:51:58;18.70;1.50
1277;DHT22;631;51.024;13.826;2023-07-02T06:54:25;18.80;2.70
1277;DHT22;631;51.024;13.826;2023-07-02T06:56:51;18.80;1.00
1277;DHT22;631;51.024;13.826;2023-07-02T06:59:23;18.80;1.00
1277;DHT22;631;51.024;13.826;2023-07-02T07:01:51;18.90;1.00
1277;DHT22;631;51.024;13.826;2023-07-02T07:04:17;18.90;1.00
1277;DHT22;631;51.024;13.826;2023-07-02T07:06:42;18.90;1.00
1277;DHT22;631;51.024;13.826;2023-07-02T07:09:08;18.90;1.00
1277;DHT22;631;51.024;13.826;2023-07-02T07:11:34;19.00;1.00
1277;DHT22;631;51.024;13.826;2023-07-02T07:14:00;19.30;1.00
1277;DHT22;631;51.024;13.826;2023-07-02T07:16:26;19.50;1.00
1277;DHT22;631;51.024;13.826;2023-07-02T07:18:51;19.70;1.00
1277;DHT22;631;51.024;13.826;2023-07-02T07:21:17;19.90;1.00
1277;DHT22;631;51.024;13.826;2023-07-02T07:23:42;19.80;1.00
1277;DHT22;631;51.024;13.826;2023-07-02T07:26:08;19.80;1.00
1277;DHT22;631;51.024;13.826;2023-07-02T07:28:34;20.00;1.00
1277;DHT22;631;51.024;13.826;2023-07-02T07:30:59;20.10;99.90
1277;DHT22;631;51.024;13.826;2023-07-02T07:33:25;20.10;99.90
1277;DHT22;631;51.024;13.826;2023-07-02T07:35:50;20.20;99.90
1277;DHT22;631;51.024;13.826;2023-07-02T07:38:16;20.40;99.90
1277;DHT22;631;51.024;13.826;2023-07-02T07:40:43;20.60;58.20
1277;DHT22;631;51.024;13.826;2023-07-02T07:43:08;20.70;13.20
1277;DHT22;631;51.024;13.826;2023-07-02T07:45:34;21.00;1.00
1277;DHT22;631;51.024;13.826;2023-07-02T07:48:00;21.10;99.90
1277;DHT22;631;51.024;13.826;2023-07-02T07:50:26;20.90;99.90
1277;DHT22;631;51.024;13.826;2023-07-02T07:52:52;20.50;99.90
1277;DHT22;631;51.024;13.826;2023-07-02T07:55:17;20.60;99.90
1277;DHT22;631;51.024;13.826;2023-07-02T07:57:43;20.80;99.90
1277;DHT22;631;51.024;13.826;2023-07-02T08:00:09;20.90;99.90
1277;DHT22;631;51.024;13.826;2023-07-02T08:02:35;20.80;99.90
1277;DHT22;631;51.024;13.826;2023-07-02T08:05:01;20.40;99.90
1277;DHT22;631;51.024;13.826;2023-07-02T08:07:28;20.50;99.90
1277;DHT22;631;51.024;13.826;2023-07-02T08:09:53;20.60;99.90
1277;DHT22;631;51.024;13.826;2023-07-02T08:12:19;20.60;1.00
1277;DHT22;631;51.024;13.826;2023-07-02T08:14:44;20.80;1.00
1277;DHT22;631;51.024;13.826;2023-07-02T08:17:10;20.90;1.00
1277;DHT22;631;51.024;13.826;2023-07-02T08:19:36;21.20;1.00
1277;DHT22;631;51.024;13.826;2023-07-02T08:22:01;21.50;1.00
1277;DHT22;631;51.024;13.826;2023-07-02T08:24:28;21.70;1.00
1277;DHT22;631;51.024;13.826;2023-07-02T08:26:53;21.80;1.00
1277;DHT22;631;51.024;13.826;2023-07-02T08:29:19;22.00;1.00
1277;DHT22;631;51.024;13.826;2023-07-02T08:31:44;22.00;1.00
1277;DHT22;631;51.024;13.826;2023-07-02T08:34:10;22.10;1.00
1277;DHT22;631;51.024;13.826;2023-07-02T08:36:36;22.30;1.00
1277;DHT22;631;51.024;13.826;2023-07-02T08:39:01;22.30;1.00
1277;DHT22;631;51.024;13.826;2023-07-02T08:41:28;22.10;1.00
1277;DHT22;631;51.024;13.826;2023-07-02T08:43:55;22.40;1.00
1277;DHT22;631;51.024;13.826;2023-07-02T08:46:21;22.60;1.00
1277;DHT22;631;51.024;13.826;2023-07-02T08:48:47;22.60;1.00
1277;DHT22;631;51.024;13.826;2023-07-02T08:51:13;22.60;1.00
1277;DHT22;631;51.024;13.826;2023-07-02T08:53:39;22.70;99.90
1277;DHT22;631;51.024;13.826;2023-07-02T08:56:04;22.90;99.90
1277;DHT22;631;51.024;13.826;2023-07-02T08:58:30;23.00;99.90
1277;DHT22;631;51.024;13.826;2023-07-02T09:01:14;23.10;99.90
1277;DHT22;631;51.024;13.826;2023-07-02T09:03:40;23.10;99.90
1277;DHT22;631;51.024;13.826;2023-07-02T09:06:08;22.80;99.90
1277;DHT22;631;51.024;13.826;2023-07-02T09:08:34;22.80;99.90
1277;DHT22;631;51.024;13.826;2023-07-02T09:16:07;23.40;99.90
1277;DHT22;631;51.024;13.826;2023-07-02T09:18:33;23.50;99.90
1277;DHT22;631;51.024;13.826;2023-07-02T09:20:59;23.60;99.90
1277;DHT22;631;51.024;13.826;2023-07-02T09:23:34;23.70;99.90
1277;DHT22;631;51.024;13.826;2023-07-02T09:26:03;23.90;99.90
1277;DHT22;631;51.024;13.826;2023-07-02T09:28:28;24.30;99.90
1277;DHT22;631;51.024;13.826;2023-07-02T09:30:55;24.50;99.90
1277;DHT22;631;51.024;13.826;2023-07-02T09:33:26;24.70;99.90
1277;DHT22;631;51.024;13.826;2023-07-02T09:35:52;24.70;99.90
1277;DHT22;631;51.024;13.826;2023-07-02T09:38:21;24.90;1.00
1277;DHT22;631;51.024;13.826;2023-07-02T09:40:52;25.50;1.00
1277;DHT22;631;51.024;13.826;2023-07-02T09:43:18;25.60;1.00
1277;DHT22;631;51.024;13.826;2023-07-02T09:45:46;25.60;99.90
1277;DHT22;631;51.024;13.826;2023-07-02T09:48:13;25.70;99.90
1277;DHT22;631;51.024;13.826;2023-07-02T09:50:47;25.20;1.00
1277;DHT22;631;51.024;13.826;2023-07-02T09:53:14;25.40;99.90
1277;DHT22;631;51.024;13.826;2023-07-02T09:55:42;25.50;99.90
1277;DHT22;631;51.024;13.826;2023-07-02T09:58:08;25.40;99.90
1277;DHT22;631;51.024;13.826;2023-07-02T10:00:34;25.00;99.90
1277;DHT22;631;51.024;13.826;2023-07-02T10:03:00;24.70;99.90
1277;DHT22;631;51.024;13.826;2023-07-02T10:05:33;24.90;99.90
1277;DHT22;631;51.024;13.826;2023-07-02T10:08:14;25.10;99.90
1277;DHT22;631;51.024;13.826;2023-07-02T10:10:42;25.10;99.90
1277;DHT22;631;51.024;13.826;2023-07-02T10:13:08;25.00;99.90
1277;DHT22;631;51.024;13.826;2023-07-02T10:15:33;24.60;99.90
1277;DHT22;631;51.024;13.826;2023-07-02T10:18:04;24.90;99.90
1277;DHT22;631;51.024;13.826;2023-07-02T10:20:38;25.20;99.90
1277;DHT22;631;51.024;13.826;2023-07-02T10:23:06;25.90;99.90
1277;DHT22;631;51.024;13.826;2023-07-02T10:25:33;27.00;99.90
1277;DHT22;631;51.024;13.826;2023-07-02T10:28:01;27.90;99.90
1277;DHT22;631;51.024;13.826;2023-07-02T10:30:31;28.30;1.00
1277;DHT22;631;51.024;13.826;2023-07-02T10:33:17;28.30;1.00
1277;DHT22;631;51.024;13.826;2023-07-02T10:35:44;27.10;1.00
1277;DHT22;631;51.024;13.826;2023-07-02T10:40:42;25.60;99.90
1277;DHT22;631;51.024;13.826;2023-07-02T10:43:08;25.30;99.90
1277;DHT22;631;51.024;13.826;2023-07-02T10:45:34;25.00;99.90
1277;DHT22;631;51.024;13.826;2023-07-02T10:48:04;24.80;99.90
1277;DHT22;631;51.024;13.826;2023-07-02T10:50:34;25.00;99.90
1277;DHT22;631;51.024;13.826;2023-07-02T10:52:59;24.80;99.90
1277;DHT22;631;51.024;13.826;2023-07-02T10:55:26;24.60;99.90
1277;DHT22;631;51.024;13.826;2023-07-02T10:58:04;24.50;99.90
1277;DHT22;631;51.024;13.826;2023-07-02T11:00:30;24.60;99.90
1277;DHT22;631;51.024;13.826;2023-07-02T11:02:56;25.00;99.90
1277;DHT22;631;51.024;13.826;2023-07-02T11:05:22;25.50;99.90
1277;DHT22;631;51.024;13.826;2023-07-02T11:07:48;26.00;99.90
1277;DHT22;631;51.024;13.826;2023-07-02T11:10:19;26.20;99.90
1277;DHT22;631;51.024;13.826;2023-07-02T11:12:45;26.10;99.90
1277;DHT22;631;51.024;13.826;2023-07-02T11:15:15;26.20;99.90
1277;DHT22;631;51.024;13.826;2023-07-02T11:17:43;26.30;99.90
1277;DHT22;631;51.024;13.826;2023-07-02T11:20:09;25.90;99.90
1277;DHT22;631;51.024;13.826;2023-07-02T11:22:36;25.80;99.90
1277;DHT22;631;51.024;13.826;2023-07-02T11:25:16;26.10;99.90
1277;DHT22;631;51.024;13.826;2023-07-02T11:27:43;26.00;1.00
1277;DHT22;631;51.024;13.826;2023-07-02T11:30:09;26.20;1.00
1277;DHT22;631;51.024;13.826;2023-07-02T11:32:47;26.60;1.00
1277;DHT22;631;51.024;13.826;2023-07-02T11:35:14;26.50;1.00
1277;DHT22;631;51.024;13.826;2023-07-02T11:37:39;26.60;99.90
1277;DHT22;631;51.024;13.826;2023-07-02T11:40:05;26.30;1.00
1277;DHT22;631;51.024;13.826;2023-07-02T11:42:31;26.50;1.00
1277;DHT22;631;51.024;13.826;2023-07-02T11:44:57;27.00;1.00
1277;DHT22;631;51.024;13.826;2023-07-02T11:47:22;27.40;1.00
1277;DHT22;631;51.024;13.826;2023-07-02T11:49:48;27.10;1.00
1277;DHT22;631;51.024;13.826;2023-07-02T11:52:13;27.00;99.90
1277;DHT22;631;51.024;13.826;2023-07-02T11:54:40;27.00;1.00
1277;DHT22;631;51.024;13.826;2023-07-02T11:57:06;27.00;99.90
1277;DHT22;631;51.024;13.826;2023-07-02T11:59:31;26.90;99.90
1277;DHT22;631;51.024;13.826;2023-07-02T12:01:57;27.00;99.90
1277;DHT22;631;51.024;13.826;2023-07-02T12:04:23;27.60;99.90
1277;DHT22;631;51.024;13.826;2023-07-02T12:06:48;27.60;1.00
1277;DHT22;631;51.024;13.826;2023-07-02T12:09:14;27.80;1.00
1277;DHT22;631;51.024;13.826;2023-07-02T12:11:40;27.50;1.00
1277;DHT22;631;51.024;13.826;2023-07-02T12:14:05;26.80;1.00
1277;DHT22;631;51.024;13.826;2023-07-02T12:16:31;26.70;1.00
1277;DHT22;631;51.024;13.826;2023-07-02T12:18:57;26.50;1.00
1277;DHT22;631;51.024;13.826;2023-07-02T12:21:22;26.10;1.00
1277;DHT22;631;51.024;13.826;2023-07-02T12:23:48;25.60;1.00
1277;DHT22;631;51.024;13.826;2023-07-02T12:26:14;25.50;1.00
1277;DHT22;631;51.024;13.826;2023-07-02T12:28:39;26.40;1.00
1277;DHT22;631;51.024;13.826;2023-07-02T12:31:05;27.20;1.00
1277;DHT22;631;51.024;13.826;2023-07-02T12:33:30;27.60;1.00
1277;DHT22;631;51.024;13.826;2023-07-02T12:35:56;28.00;99.90
1277;DHT22;631;51.024;13.826;2023-07-02T12:38:21;28.00;99.90
1277;DHT22;631;51.024;13.826;2023-07-02T12:40:47;28.30;99.90
1277;DHT22;631;51.024;13.826;2023-07-02T12:43:14;28.10;99.90
1277;DHT22;631;51.024;13.826;2023-07-02T12:45:39;27.50;1.00
1277;DHT22;631;51.024;13.826;2023-07-02T12:48:05;26.90;1.00
1277;DHT22;631;51.024;13.826;2023-07-02T12:50:31;26.50;99.90
1277;DHT22;631;51.024;13.826;2023-07-02T12:52:56;26.30;99.90
1277;DHT22;631;51.024;13.826;2023-07-02T12:55:22;26.40;99.90
1277;DHT22;631;51.024;13.826;2023-07-02T12:57:47;27.00;1.00
1277;DHT22;631;51.024;13.826;2023-07-02T13:00:13;27.10;1.00
1277;DHT22;631;51.024;13.826;2023-07-02T13:02:39;26.80;99.90
1277;DHT22;631;51.024;13.826;2023-07-02T13:05:05;26.30;99.90
1277;DHT22;631;51.024;13.826;2023-07-02T13:07:31;25.40;99.90
1277;DHT22;631;51.024;13.826;2023-07-02T13:09:56;25.20;99.90
1277;DHT22;631;51.024;13.826;2023-07-02T13:12:22;24.80;99.90
1277;DHT22;631;51.024;13.826;2023-07-02T13:14:48;25.10;1.00
1277;DHT22;631;51.024;13.826;2023-07-02T13:17:13;25.80;1.00
1277;DHT22;631;51.024;13.826;2023-07-02T13:19:39;26.60;99.90
1277;DHT22;631;51.024;13.826;2023-07-02T13:22:05;26.70;1.00
1277;DHT22;631;51.024;13.826;2023-07-02T13:24:34;26.80;1.00
1277;DHT22;631;51.024;13.826;2023-07-02T13:27:05;26.60;1.00
1277;DHT22;631;51.024;13.826;2023-07-02T13:29:32;26.40;1.00
1277;DHT22;631;51.024;13.826;2023-07-02T13:31:58;26.00;1.00
1277;DHT22;631;51.024;13.826;2023-07-02T13:34:24;26.70;1.00
1277;DHT22;631;51.024;13.826;2023-07-02T13:36:49;27.60;1.00
1277;DHT22;631;51.024;13.826;2023-07-02T13:39:15;27.60;1.00
1277;DHT22;631;51.024;13.826;2023-07-02T13:41:41;27.60;1.00
1277;DHT22;631;51.024;13.826;2023-07-02T13:44:06;27.80;1.00
1277;DHT22;631;51.024;13.826;2023-07-02T13:46:32;28.20;1.00
1277;DHT22;631;51.024;13.826;2023-07-02T13:48:57;28.90;1.00
1277;DHT22;631;51.024;13.826;2023-07-02T13:51:23;29.10;1.00
1277;DHT22;631;51.024;13.826;2023-07-02T13:53:49;29.10;1.00
1277;DHT22;631;51.024;13.826;2023-07-02T13:56:14;28.40;1.00
1277;DHT22;631;51.024;13.826;2023-07-02T14:01:25;27.90;99.90
1277;DHT22;631;51.024;13.826;2023-07-02T14:03:51;27.70;1.00
1277;DHT22;631;51.024;13.826;2023-07-02T14:06:18;27.50;99.90
1277;DHT22;631;51.024;13.826;2023-07-02T14:08:43;27.70;1.00
1277;DHT22;631;51.024;13.826;2023-07-02T14:11:09;27.90;99.90
1277;DHT22;631;51.024;13.826;2023-07-02T14:13:34;27.80;99.90
1277;DHT22;631;51.024;13.826;2023-07-02T14:16:01;27.40;99.90
1277;DHT22;631;51.024;13.826;2023-07-02T14:18:27;26.80;99.90
1277;DHT22;631;51.024;13.826;2023-07-02T14:20:53;26.40;99.90
1277;DHT22;631;51.024;13.826;2023-07-02T14:23:18;26.20;1.00
1277;DHT22;631;51.024;13.826;2023-07-02T14:25:44;25.70;99.90
1277;DHT22;631;51.024;13.826;2023-07-02T14:28:10;25.60;99.90
1277;DHT22;631;51.024;13.826;2023-07-02T14:30:36;25.20;99.90
1277;DHT22;631;51.024;13.826;2023-07-02T14:33:02;25.10;99.90
1277;DHT22;631;51.024;13.826;2023-07-02T14:35:28;25.30;1.00
1277;DHT22;631;51.024;13.826;2023-07-02T14:37:56;25.10;24.80
1277;DHT22;631;51.024;13.826;2023-07-02T14:40:22;24.70;1.00
1277;DHT22;631;51.024;13.826;2023-07-02T14:42:48;24.70;1.00
1277;DHT22;631;51.024;13.826;2023-07-02T14:45:13;24.80;1.00
1277;DHT22;631;51.024;13.826;2023-07-02T14:47:39;25.10;8.50
1277;DHT22;631;51.024;13.826;2023-07-02T14:50:05;25.80;1.00
1277;DHT22;631;51.024;13.826;2023-07-02T14:52:31;26.30;1.00
1277;DHT22;631;51.024;13.826;2023-07-02T14:54:57;26.60;1.00
1277;DHT22;631;51.024;13.826;2023-07-02T14:57:25;27.00;38.50
1277;DHT22;631;51.024;13.826;2023-07-02T14:59:50;27.40;1.00
1277;DHT22;631;51.024;13.826;2023-07-02T15:02:16;27.80;99.90
1277;DHT22;631;51.024;13.826;2023-07-02T15:04:42;28.20;99.90
1277;DHT22;631;51.024;13.826;2023-07-02T15:07:08;28.30;57.90
1277;DHT22;631;51.024;13.826;2023-07-02T15:09:33;27.90;99.90
1277;DHT22;631;51.024;13.826;2023-07-02T15:11:59;27.30;99.90
1277;DHT22;631;51.024;13.826;2023-07-02T15:14:24;27.00;1.00
1277;DHT22;631;51.024;13.826;2023-07-02T15:16:50;26.30;1.00
1277;DHT22;631;51.024;13.826;2023-07-02T15:19:17;26.00;1.00
1277;DHT22;631;51.024;13.826;2023-07-02T15:21:43;25.80;1.00
1277;DHT22;631;51.024;13.826;2023-07-02T15:24:08;25.60;1.00
1277;DHT22;631;51.024;13.826;2023-07-02T15:26:37;25.40;1.00
1277;DHT22;631;51.024;13.826;2023-07-02T15:29:04;25.70;1.00
1277;DHT22;631;51.024;13.826;2023-07-02T15:31:30;26.10;1.00
1277;DHT22;631;51.024;13.826;2023-07-02T15:33:55;26.40;1.00
1277;DHT22;631;51.024;13.826;2023-07-02T15:36:21;26.70;1.00
1277;DHT22;631;51.024;13.826;2023-07-02T15:38:50;26.90;99.90
1277;DHT22;631;51.024;13.826;2023-07-02T15:41:17;27.00;99.90
1277;DHT22;631;51.024;13.826;2023-07-02T15:43:45;27.20;99.90
1277;DHT22;631;51.024;13.826;2023-07-02T15:46:12;27.60;99.90
1277;DHT22;631;51.024;13.826;2023-07-02T15:48:39;27.90;1.00
1277;DHT22;631;51.024;13.826;2023-07-02T15:51:06;27.60;99.90
1277;DHT22;631;51.024;13.826;2023-07-02T15:53:32;27.90;1.00
1277;DHT22;631;51.024;13.826;2023-07-02T15:55:59;28.10;1.00
1277;DHT22;631;51.024;13.826;2023-07-02T15:58:25;27.50;1.00
1277;DHT22;631;51.024;13.826;2023-07-02T16:00:52;27.10;1.00
1277;DHT22;631;51.024;13.826;2023-07-02T16:03:18;26.80;1.00
1277;DHT22;631;51.024;13.826;2023-07-02T16:05:44;26.40;1.00
1277;DHT22;631;51.024;13.826;2023-07-02T16:08:10;26.00;1.00
1277;DHT22;631;51.024;13.826;2023-07-02T16:10:43;26.30;99.90
1277;DHT22;631;51.024;13.826;2023-07-02T16:13:09;26.10;99.90
1277;DHT22;631;51.024;13.826;2023-07-02T16:15:40;25.80;1.00